sensor_id;sensor_type;location;lat;lon;timestamp;P1;durP1;ratioP1;P2;durP2;ratioP2
56511;SDS011;42408;53.238;5.686;2024-01-10T00:01:23;13.33;;;11.33;;
56511;SDS011;42408;53.238;5.686;2024-01-10T00:03:52;14.48;;;11.75;;
56511;SDS011;42408;53.238;5.686;2024-01-10T00:06:20;17.20;;;13.20;;
56511;SDS011;42408;53.238;5.686;2024-01-10T00:08:46;14.10;;;11.63;;
56511;SDS011;42408;53.238;5.686;2024-01-10T00:11:12;16.53;;;13.10;;
56511;SDS011;42408;53.238;5.686;2024-01-10T00:13:38;15.60;;;13.00;;
56511;SDS011;42408;53.238;5.686;2024-01-10T00:16:03;16.60;;;13.17;;
56511;SDS011;42408;53.238;5.686;2024-01-10T00:18:30;15.65;;;13.15;;
56511;SDS011;42408;53.238;5.686;2024-01-10T00:20:55;16.80;;;13.63;;
56511;SDS011;42408;53.238;5.686;2024-01-10T00:23:21;17.70;;;14.20;;
56511;SDS011;42408;53.238;5.686;2024-01-10T00:25:48;15.48;;;12.73;;
56511;SDS011;42408;53.238;5.686;2024-01-10T00:28:14;17.63;;;13.52;;
56511;SDS011;42408;53.238;5.686;2024-01-10T00:30:43;17.42;;;12.90;;
56511;SDS011;42408;53.238;5.686;2024-01-10T00:33:13;17.23;;;13.10;;
56511;SDS011;42408;53.238;5.686;2024-01-10T00:35:39;17.75;;;13.95;;
56511;SDS011;42408;53.238;5.686;2024-01-10T00:38:05;17.70;;;13.83;;
56511;SDS011;42408;53.238;5.686;2024-01-10T00:40:30;18.93;;;13.67;;
56511;SDS011;42408;53.238;5.686;2024-01-10T00:42:56;18.37;;;14.60;;
56511;SDS011;42408;53.238;5.686;2024-01-10T00:45:22;19.27;;;13.50;;
56511;SDS011;42408;53.238;5.686;2024-01-10T00:47:50;18.17;;;13.53;;
56511;SDS011;42408;53.238;5.686;2024-01-10T00:50:16;19.17;;;14.00;;
56511;SDS011;42408;53.238;5.686;2024-01-10T00:52:43;17.67;;;14.60;;
56511;SDS011;42408;53.238;5.686;2024-01-10T00:55:09;18.85;;;15.00;;
56511;SDS011;42408;53.238;5.686;2024-01-10T00:57:35;17.87;;;15.60;;
56511;SDS011;42408;53.238;5.686;2024-01-10T01:00:03;20.00;;;15.80;;
56511;SDS011;42408;53.238;5.686;2024-01-10T01:02:32;19.00;;;15.75;;
56511;SDS011;42408;53.238;5.686;2024-01-10T01:04:58;18.90;;;15.20;;
56511;SDS011;42408;53.238;5.686;2024-01-10T01:07:24;19.60;;;15.60;;
56511;SDS011;42408;53.238;5.686;2024-01-10T01:09:49;18.97;;;15.10;;
56511;SDS011;42408;53.238;5.686;2024-01-10T01:12:15;20.23;;;15.83;;
56511;SDS011;42408;53.238;5.686;2024-01-10T01:14:41;22.00;;;16.43;;
56511;SDS011;42408;53.238;5.686;2024-01-10T01:17:06;19.57;;;16.00;;
56511;SDS011;42408;53.238;5.686;2024-01-10T01:19:32;20.63;;;16.73;;
56511;SDS011;42408;53.238;5.686;2024-01-10T01:21:58;19.70;;;15.93;;
56511;SDS011;42408;53.238;5.686;2024-01-10T01:24:23;18.47;;;16.00;;
56511;SDS011;42408;53.238;5.686;2024-01-10T01:26:49;19.73;;;15.97;;
56511;SDS011;42408;53.238;5.686;2024-01-10T01:29:14;19.60;;;17.50;;
56511;SDS011;42408;53.238;5.686;2024-01-10T01:31:40;20.33;;;15.73;;
56511;SDS011;42408;53.238;5.686;2024-01-10T01:34:06;22.37;;;18.13;;
56511;SDS011;42408;53.238;5.686;2024-01-10T01:36:32;20.03;;;15.93;;
56511;SDS011;42408;53.238;5.686;2024-01-10T01:38:57;19.57;;;16.93;;
56511;SDS011;42408;53.238;5.686;2024-01-10T01:41:23;21.77;;;18.50;;
56511;SDS011;42408;53.238;5.686;2024-01-10T01:43:48;24.33;;;17.93;;
56511;SDS011;42408;53.238;5.686;2024-01-10T01:46:14;22.43;;;17.90;;
56511;SDS011;42408;53.238;5.686;2024-01-10T01:48:40;22.53;;;18.63;;
56511;SDS011;42408;53.238;5.686;2024-01-10T01:51:07;24.77;;;19.33;;
56511;SDS011;42408;53.238;5.686;2024-01-10T01:53:37;23.98;;;18.48;;
56511;SDS011;42408;53.238;5.686;2024-01-10T01:56:07;24.75;;;18.02;;
56511;SDS011;42408;53.238;5.686;2024-01-10T01:58:34;23.80;;;18.80;;
56511;SDS011;42408;53.238;5.686;2024-01-10T02:01:04;23.73;;;18.75;;
56511;SDS011;42408;53.238;5.686;2024-01-10T02:03:33;24.25;;;18.90;;
56511;SDS011;42408;53.238;5.686;2024-01-10T02:05:59;23.55;;;19.17;;
56511;SDS011;42408;53.238;5.686;2024-01-10T02:08:28;23.48;;;18.80;;
56511;SDS011;42408;53.238;5.686;2024-01-10T02:10:56;22.98;;;19.40;;
56511;SDS011;42408;53.238;5.686;2024-01-10T02:13:22;24.33;;;19.67;;
56511;SDS011;42408;53.238;5.686;2024-01-10T02:15:47;25.03;;;20.17;;
56511;SDS011;42408;53.238;5.686;2024-01-10T02:18:13;25.43;;;20.60;;
56511;SDS011;42408;53.238;5.686;2024-01-10T02:20:39;26.27;;;18.98;;
56511;SDS011;42408;53.238;5.686;2024-01-10T02:23:07;24.50;;;19.33;;
56511;SDS011;42408;53.238;5.686;2024-01-10T02:25:34;24.10;;;19.23;;
56511;SDS011;42408;53.238;5.686;2024-01-10T02:30:25;24.70;;;20.08;;
56511;SDS011;42408;53.238;5.686;2024-01-10T02:32:51;23.73;;;19.67;;
56511;SDS011;42408;53.238;5.686;2024-01-10T02:35:16;25.17;;;19.90;;
56511;SDS011;42408;53.238;5.686;2024-01-10T02:37:42;25.73;;;20.60;;
56511;SDS011;42408;53.238;5.686;2024-01-10T02:40:08;26.63;;;21.40;;
56511;SDS011;42408;53.238;5.686;2024-01-10T02:42:34;26.23;;;21.38;;
56511;SDS011;42408;53.238;5.686;2024-01-10T02:45:00;27.33;;;21.17;;
56511;SDS011;42408;53.238;5.686;2024-01-10T02:47:26;25.97;;;21.47;;
56511;SDS011;42408;53.238;5.686;2024-01-10T02:49:51;28.17;;;23.17;;
56511;SDS011;42408;53.238;5.686;2024-01-10T02:52:17;27.23;;;21.30;;
56511;SDS011;42408;53.238;5.686;2024-01-10T02:54:44;27.15;;;22.85;;
56511;SDS011;42408;53.238;5.686;2024-01-10T02:57:10;28.65;;;23.02;;
56511;SDS011;42408;53.238;5.686;2024-01-10T02:59:36;27.53;;;22.73;;
56511;SDS011;42408;53.238;5.686;2024-01-10T03:02:02;28.83;;;22.67;;
56511;SDS011;42408;53.238;5.686;2024-01-10T03:04:27;27.97;;;22.07;;
56511;SDS011;42408;53.238;5.686;2024-01-10T03:06:53;27.97;;;23.37;;
56511;SDS011;42408;53.238;5.686;2024-01-10T03:09:19;27.97;;;23.10;;
56511;SDS011;42408;53.238;5.686;2024-01-10T03:11:44;29.20;;;24.40;;
56511;SDS011;42408;53.238;5.686;2024-01-10T03:14:10;26.67;;;22.23;;
56511;SDS011;42408;53.238;5.686;2024-01-10T03:16:36;29.40;;;22.65;;
56511;SDS011;42408;53.238;5.686;2024-01-10T03:19:02;30.20;;;22.50;;
56511;SDS011;42408;53.238;5.686;2024-01-10T03:21:28;28.25;;;23.42;;
56511;SDS011;42408;53.238;5.686;2024-01-10T03:23:57;27.93;;;22.13;;
56511;SDS011;42408;53.238;5.686;2024-01-10T03:26:24;30.00;;;23.85;;
56511;SDS011;42408;53.238;5.686;2024-01-10T03:28:50;30.38;;;23.85;;
56511;SDS011;42408;53.238;5.686;2024-01-10T03:31:16;30.93;;;23.10;;
56511;SDS011;42408;53.238;5.686;2024-01-10T03:33:42;28.48;;;22.95;;
56511;SDS011;42408;53.238;5.686;2024-01-10T03:36:17;26.73;;;22.83;;
56511;SDS011;42408;53.238;5.686;2024-01-10T03:38:43;27.98;;;22.35;;
56511;SDS011;42408;53.238;5.686;2024-01-10T03:41:13;27.25;;;22.98;;
56511;SDS011;42408;53.238;5.686;2024-01-10T03:43:39;28.30;;;22.30;;
56511;SDS011;42408;53.238;5.686;2024-01-10T03:46:04;27.13;;;21.37;;
56511;SDS011;42408;53.238;5.686;2024-01-10T03:48:30;27.90;;;21.17;;
56511;SDS011;42408;53.238;5.686;2024-01-10T03:50:56;25.47;;;19.87;;
56511;SDS011;42408;53.238;5.686;2024-01-10T03:53:22;25.47;;;20.53;;
56511;SDS011;42408;53.238;5.686;2024-01-10T03:55:47;23.77;;;19.33;;
56511;SDS011;42408;53.238;5.686;2024-01-10T03:58:13;23.57;;;19.07;;
56511;SDS011;42408;53.238;5.686;2024-01-10T04:00:39;25.07;;;18.80;;
56511;SDS011;42408;53.238;5.686;2024-01-10T04:03:04;24.17;;;18.40;;
56511;SDS011;42408;53.238;5.686;2024-01-10T04:05:30;23.65;;;19.13;;
56511;SDS011;42408;53.238;5.686;2024-01-10T04:07:56;24.07;;;18.77;;
56511;SDS011;42408;53.238;5.686;2024-01-10T04:10:22;23.37;;;18.37;;
56511;SDS011;42408;53.238;5.686;2024-01-10T04:12:48;23.50;;;18.13;;
56511;SDS011;42408;53.238;5.686;2024-01-10T04:15:14;24.67;;;17.55;;
56511;SDS011;42408;53.238;5.686;2024-01-10T04:17:40;19.45;;;16.58;;
56511;SDS011;42408;53.238;5.686;2024-01-10T04:20:06;20.83;;;17.43;;
56511;SDS011;42408;53.238;5.686;2024-01-10T04:22:32;20.08;;;16.45;;
56511;SDS011;42408;53.238;5.686;2024-01-10T04:24:58;21.27;;;17.17;;
56511;SDS011;42408;53.238;5.686;2024-01-10T04:27:26;18.95;;;15.68;;
56511;SDS011;42408;53.238;5.686;2024-01-10T04:29:52;23.73;;;17.17;;
56511;SDS011;42408;53.238;5.686;2024-01-10T04:32:18;20.30;;;16.70;;
56511;SDS011;42408;53.238;5.686;2024-01-10T04:34:44;19.57;;;15.97;;
56511;SDS011;42408;53.238;5.686;2024-01-10T04:37:09;19.87;;;15.93;;
56511;SDS011;42408;53.238;5.686;2024-01-10T04:39:35;20.03;;;15.67;;
56511;SDS011;42408;53.238;5.686;2024-01-10T04:42:03;20.92;;;17.15;;
56511;SDS011;42408;53.238;5.686;2024-01-10T04:44:30;20.77;;;17.08;;
56511;SDS011;42408;53.238;5.686;2024-01-10T04:46:55;21.37;;;15.70;;
56511;SDS011;42408;53.238;5.686;2024-01-10T04:49:21;22.45;;;16.67;;
56511;SDS011;42408;53.238;5.686;2024-01-10T04:51:47;21.52;;;17.55;;
56511;SDS011;42408;53.238;5.686;2024-01-10T04:54:13;17.80;;;15.37;;
56511;SDS011;42408;53.238;5.686;2024-01-10T04:56:39;18.57;;;15.40;;
56511;SDS011;42408;53.238;5.686;2024-01-10T04:59:05;21.00;;;15.50;;
56511;SDS011;42408;53.238;5.686;2024-01-10T05:01:31;22.70;;;16.42;;
56511;SDS011;42408;53.238;5.686;2024-01-10T05:03:57;22.10;;;16.80;;
56511;SDS011;42408;53.238;5.686;2024-01-10T05:06:23;20.35;;;16.25;;
56511;SDS011;42408;53.238;5.686;2024-01-10T05:08:49;19.93;;;16.30;;
56511;SDS011;42408;53.238;5.686;2024-01-10T05:11:15;23.13;;;17.80;;
56511;SDS011;42408;53.238;5.686;2024-01-10T05:13:41;25.50;;;19.40;;
56511;SDS011;42408;53.238;5.686;2024-01-10T05:18:33;24.42;;;19.95;;
56511;SDS011;42408;53.238;5.686;2024-01-10T05:20:59;22.00;;;17.90;;
56511;SDS011;42408;53.238;5.686;2024-01-10T05:23:25;23.98;;;19.25;;
56511;SDS011;42408;53.238;5.686;2024-01-10T05:25:51;25.13;;;18.70;;
56511;SDS011;42408;53.238;5.686;2024-01-10T05:28:17;22.90;;;18.53;;
56511;SDS011;42408;53.238;5.686;2024-01-10T05:30:42;24.53;;;19.80;;
56511;SDS011;42408;53.238;5.686;2024-01-10T05:33:09;24.20;;;19.38;;
56511;SDS011;42408;53.238;5.686;2024-01-10T05:38:02;25.15;;;20.23;;
56511;SDS011;42408;53.238;5.686;2024-01-10T05:40:28;23.80;;;19.45;;
56511;SDS011;42408;53.238;5.686;2024-01-10T05:42:55;24.00;;;20.00;;
56511;SDS011;42408;53.238;5.686;2024-01-10T05:45:21;24.25;;;20.00;;
56511;SDS011;42408;53.238;5.686;2024-01-10T05:47:47;23.77;;;20.00;;
56511;SDS011;42408;53.238;5.686;2024-01-10T05:50:13;22.67;;;20.02;;
56511;SDS011;42408;53.238;5.686;2024-01-10T05:52:39;24.85;;;20.58;;
56511;SDS011;42408;53.238;5.686;2024-01-10T05:55:05;25.83;;;20.30;;
56511;SDS011;42408;53.238;5.686;2024-01-10T05:57:33;24.35;;;19.63;;
56511;SDS011;42408;53.238;5.686;2024-01-10T05:59:59;25.88;;;21.30;;
56511;SDS011;42408;53.238;5.686;2024-01-10T06:02:25;27.17;;;21.27;;
56511;SDS011;42408;53.238;5.686;2024-01-10T06:04:51;23.90;;;20.35;;
56511;SDS011;42408;53.238;5.686;2024-01-10T06:07:17;24.13;;;19.77;;
56511;SDS011;42408;53.238;5.686;2024-01-10T06:09:43;24.92;;;19.23;;
56511;SDS011;42408;53.238;5.686;2024-01-10T06:12:09;25.23;;;19.03;;
56511;SDS011;42408;53.238;5.686;2024-01-10T06:14:35;26.10;;;21.43;;
56511;SDS011;42408;53.238;5.686;2024-01-10T06:17:01;28.92;;;21.00;;
56511;SDS011;42408;53.238;5.686;2024-01-10T06:19:29;26.35;;;21.63;;
56511;SDS011;42408;53.238;5.686;2024-01-10T06:21:56;28.98;;;22.02;;
56511;SDS011;42408;53.238;5.686;2024-01-10T06:24:22;25.13;;;21.92;;
56511;SDS011;42408;53.238;5.686;2024-01-10T06:26:47;27.17;;;21.87;;
56511;SDS011;42408;53.238;5.686;2024-01-10T06:29:14;25.55;;;20.92;;
56511;SDS011;42408;53.238;5.686;2024-01-10T06:31:40;26.65;;;20.50;;
56511;SDS011;42408;53.238;5.686;2024-01-10T06:34:06;23.63;;;20.27;;
56511;SDS011;42408;53.238;5.686;2024-01-10T06:36:33;26.45;;;21.08;;
56511;SDS011;42408;53.238;5.686;2024-01-10T06:38:58;25.13;;;21.33;;
56511;SDS011;42408;53.238;5.686;2024-01-10T06:41:24;24.23;;;21.57;;
56511;SDS011;42408;53.238;5.686;2024-01-10T06:43:50;26.80;;;21.47;;
56511;SDS011;42408;53.238;5.686;2024-01-10T06:46:17;26.33;;;21.98;;
56511;SDS011;42408;53.238;5.686;2024-01-10T06:48:43;28.67;;;23.03;;
56511;SDS011;42408;53.238;5.686;2024-01-10T06:51:15;28.70;;;22.00;;
56511;SDS011;42408;53.238;5.686;2024-01-10T06:53:41;28.70;;;23.55;;
56511;SDS011;42408;53.238;5.686;2024-01-10T06:56:07;29.60;;;23.67;;
56511;SDS011;42408;53.238;5.686;2024-01-10T06:58:34;30.25;;;24.63;;
56511;SDS011;42408;53.238;5.686;2024-01-10T07:01:00;28.37;;;22.87;;
56511;SDS011;42408;53.238;5.686;2024-01-10T07:03:26;29.30;;;22.97;;
56511;SDS011;42408;53.238;5.686;2024-01-10T07:05:52;26.57;;;21.87;;
56511;SDS011;42408;53.238;5.686;2024-01-10T07:08:17;25.63;;;21.67;;
56511;SDS011;42408;53.238;5.686;2024-01-10T07:10:43;28.43;;;22.90;;
56511;SDS011;42408;53.238;5.686;2024-01-10T07:13:09;26.47;;;21.60;;
56511;SDS011;42408;53.238;5.686;2024-01-10T07:15:36;25.10;;;20.90;;
56511;SDS011;42408;53.238;5.686;2024-01-10T07:18:02;24.73;;;21.00;;
56511;SDS011;42408;53.238;5.686;2024-01-10T07:20:28;27.67;;;21.10;;
56511;SDS011;42408;53.238;5.686;2024-01-10T07:22:53;26.10;;;21.13;;
56511;SDS011;42408;53.238;5.686;2024-01-10T07:25:19;24.35;;;20.65;;
56511;SDS011;42408;53.238;5.686;2024-01-10T07:27:47;25.02;;;20.17;;
56511;SDS011;42408;53.238;5.686;2024-01-10T07:30:13;25.03;;;19.87;;
56511;SDS011;42408;53.238;5.686;2024-01-10T07:32:39;22.67;;;20.20;;
56511;SDS011;42408;53.238;5.686;2024-01-10T07:35:06;24.33;;;20.55;;
56511;SDS011;42408;53.238;5.686;2024-01-10T07:37:35;24.63;;;19.67;;
56511;SDS011;42408;53.238;5.686;2024-01-10T07:40:03;26.00;;;19.58;;
56511;SDS011;42408;53.238;5.686;2024-01-10T07:42:36;24.90;;;20.50;;
56511;SDS011;42408;53.238;5.686;2024-01-10T07:45:02;23.90;;;19.65;;
56511;SDS011;42408;53.238;5.686;2024-01-10T07:49:59;24.52;;;18.20;;
56511;SDS011;42408;53.238;5.686;2024-01-10T07:52:25;23.40;;;18.90;;
56511;SDS011;42408;53.238;5.686;2024-01-10T07:54:51;22.77;;;18.42;;
56511;SDS011;42408;53.238;5.686;2024-01-10T07:57:17;22.60;;;17.90;;
56511;SDS011;42408;53.238;5.686;2024-01-10T07:59:44;21.98;;;18.63;;
56511;SDS011;42408;53.238;5.686;2024-01-10T08:02:10;22.17;;;18.58;;
56511;SDS011;42408;53.238;5.686;2024-01-10T08:04:36;21.75;;;18.25;;
56511;SDS011;42408;53.238;5.686;2024-01-10T08:07:02;22.07;;;18.30;;
56511;SDS011;42408;53.238;5.686;2024-01-10T08:09:28;21.87;;;17.43;;
56511;SDS011;42408;53.238;5.686;2024-01-10T08:11:54;20.30;;;16.80;;
56511;SDS011;42408;53.238;5.686;2024-01-10T08:14:19;20.07;;;16.37;;
56511;SDS011;42408;53.238;5.686;2024-01-10T08:16:45;21.13;;;15.97;;
56511;SDS011;42408;53.238;5.686;2024-01-10T08:19:11;19.20;;;15.63;;
56511;SDS011;42408;53.238;5.686;2024-01-10T08:21:36;19.30;;;15.30;;
56511;SDS011;42408;53.238;5.686;2024-01-10T08:24:02;18.20;;;15.33;;
56511;SDS011;42408;53.238;5.686;2024-01-10T08:26:28;21.98;;;15.05;;
56511;SDS011;42408;53.238;5.686;2024-01-10T08:28:55;18.52;;;15.13;;
56511;SDS011;42408;53.238;5.686;2024-01-10T08:31:21;20.33;;;15.67;;
56511;SDS011;42408;53.238;5.686;2024-01-10T08:33:48;17.73;;;14.90;;
56511;SDS011;42408;53.238;5.686;2024-01-10T08:36:13;19.83;;;14.60;;
56511;SDS011;42408;53.238;5.686;2024-01-10T08:38:39;20.53;;;16.20;;
56511;SDS011;42408;53.238;5.686;2024-01-10T08:41:07;20.33;;;16.02;;
56511;SDS011;42408;53.238;5.686;2024-01-10T08:43:34;19.13;;;14.98;;
56511;SDS011;42408;53.238;5.686;2024-01-10T08:45:59;21.77;;;15.33;;
56511;SDS011;42408;53.238;5.686;2024-01-10T08:48:25;22.93;;;16.30;;
56511;SDS011;42408;53.238;5.686;2024-01-10T08:50:51;23.67;;;15.77;;
56511;SDS011;42408;53.238;5.686;2024-01-10T08:53:19;19.65;;;15.25;;
56511;SDS011;42408;53.238;5.686;2024-01-10T08:55:44;19.13;;;15.27;;
56511;SDS011;42408;53.238;5.686;2024-01-10T08:58:12;20.67;;;15.02;;
56511;SDS011;42408;53.238;5.686;2024-01-10T09:00:37;20.50;;;15.63;;
56511;SDS011;42408;53.238;5.686;2024-01-10T09:03:03;21.10;;;16.00;;
56511;SDS011;42408;53.238;5.686;2024-01-10T09:05:29;18.27;;;13.60;;
56511;SDS011;42408;53.238;5.686;2024-01-10T09:07:55;17.33;;;13.77;;
56511;SDS011;42408;53.238;5.686;2024-01-10T09:10:21;19.10;;;14.43;;
56511;SDS011;42408;53.238;5.686;2024-01-10T09:12:47;17.63;;;13.73;;
56511;SDS011;42408;53.238;5.686;2024-01-10T09:15:13;20.95;;;15.48;;
56511;SDS011;42408;53.238;5.686;2024-01-10T09:17:42;21.48;;;15.07;;
56511;SDS011;42408;53.238;5.686;2024-01-10T09:20:09;19.08;;;14.35;;
56511;SDS011;42408;53.238;5.686;2024-01-10T09:22:36;18.48;;;14.18;;
56511;SDS011;42408;53.238;5.686;2024-01-10T09:25:03;18.17;;;13.55;;
56511;SDS011;42408;53.238;5.686;2024-01-10T09:27:35;18.75;;;13.50;;
56511;SDS011;42408;53.238;5.686;2024-01-10T09:30:01;18.08;;;13.20;;
56511;SDS011;42408;53.238;5.686;2024-01-10T09:34:54;17.30;;;12.80;;
56511;SDS011;42408;53.238;5.686;2024-01-10T09:37:20;16.63;;;12.43;;
56511;SDS011;42408;53.238;5.686;2024-01-10T09:39:46;17.67;;;12.60;;
56511;SDS011;42408;53.238;5.686;2024-01-10T09:42:12;17.53;;;12.03;;
56511;SDS011;42408;53.238;5.686;2024-01-10T09:44:39;15.57;;;11.88;;
56511;SDS011;42408;53.238;5.686;2024-01-10T09:47:06;18.27;;;13.30;;
56511;SDS011;42408;53.238;5.686;2024-01-10T09:49:32;16.92;;;11.98;;
56511;SDS011;42408;53.238;5.686;2024-01-10T09:51:59;17.83;;;11.65;;
56511;SDS011;42408;53.238;5.686;2024-01-10T09:54:29;15.73;;;11.15;;
56511;SDS011;42408;53.238;5.686;2024-01-10T09:59:24;14.45;;;11.10;;
56511;SDS011;42408;53.238;5.686;2024-01-10T10:01:50;14.73;;;11.60;;
56511;SDS011;42408;53.238;5.686;2024-01-10T10:04:17;15.57;;;11.73;;
56511;SDS011;42408;53.238;5.686;2024-01-10T10:06:44;15.63;;;12.23;;
56511;SDS011;42408;53.238;5.686;2024-01-10T10:09:10;16.90;;;11.83;;
56511;SDS011;42408;53.238;5.686;2024-01-10T10:14:13;18.13;;;12.98;;
56511;SDS011;42408;53.238;5.686;2024-01-10T10:16:40;18.50;;;12.73;;
56511;SDS011;42408;53.238;5.686;2024-01-10T10:19:06;20.17;;;12.20;;
56511;SDS011;42408;53.238;5.686;2024-01-10T10:21:32;17.80;;;11.97;;
56511;SDS011;42408;53.238;5.686;2024-01-10T10:23:59;19.00;;;13.13;;
56511;SDS011;42408;53.238;5.686;2024-01-10T10:26:27;18.27;;;12.40;;
56511;SDS011;42408;53.238;5.686;2024-01-10T10:28:54;16.02;;;11.30;;
56511;SDS011;42408;53.238;5.686;2024-01-10T10:31:20;15.65;;;10.30;;
56511;SDS011;42408;53.238;5.686;2024-01-10T10:33:48;17.40;;;11.27;;
56511;SDS011;42408;53.238;5.686;2024-01-10T10:36:18;16.38;;;10.98;;
56511;SDS011;42408;53.238;5.686;2024-01-10T10:38:46;16.42;;;10.65;;
56511;SDS011;42408;53.238;5.686;2024-01-10T10:41:13;15.32;;;9.55;;
56511;SDS011;42408;53.238;5.686;2024-01-10T10:43:39;16.97;;;9.27;;
56511;SDS011;42408;53.238;5.686;2024-01-10T10:46:06;14.38;;;8.75;;
56511;SDS011;42408;53.238;5.686;2024-01-10T10:48:41;13.95;;;9.02;;
56511;SDS011;42408;53.238;5.686;2024-01-10T10:51:08;14.82;;;9.10;;
56511;SDS011;42408;53.238;5.686;2024-01-10T10:53:49;11.98;;;8.20;;
56511;SDS011;42408;53.238;5.686;2024-01-10T10:56:15;12.98;;;7.72;;
56511;SDS011;42408;53.238;5.686;2024-01-10T11:01:10;12.80;;;7.35;;
56511;SDS011;42408;53.238;5.686;2024-01-10T11:03:38;15.48;;;8.77;;
56511;SDS011;42408;53.238;5.686;2024-01-10T11:06:05;13.57;;;8.43;;
56511;SDS011;42408;53.238;5.686;2024-01-10T11:08:36;12.57;;;8.00;;
56511;SDS011;42408;53.238;5.686;2024-01-10T11:11:06;16.88;;;8.88;;
56511;SDS011;42408;53.238;5.686;2024-01-10T11:19:32;15.40;;;8.73;;
56511;SDS011;42408;53.238;5.686;2024-01-10T11:27:11;14.30;;;8.20;;
56511;SDS011;42408;53.238;5.686;2024-01-10T11:29:38;13.63;;;8.55;;
56511;SDS011;42408;53.238;5.686;2024-01-10T11:32:05;14.85;;;8.65;;
56511;SDS011;42408;53.238;5.686;2024-01-10T11:34:34;12.38;;;8.05;;
56511;SDS011;42408;53.238;5.686;2024-01-10T11:37:09;16.30;;;9.23;;
56511;SDS011;42408;53.238;5.686;2024-01-10T11:39:36;13.15;;;8.82;;
56511;SDS011;42408;53.238;5.686;2024-01-10T11:42:02;13.70;;;8.15;;
56511;SDS011;42408;53.238;5.686;2024-01-10T11:44:28;16.13;;;8.50;;
56511;SDS011;42408;53.238;5.686;2024-01-10T11:46:55;13.43;;;8.40;;
56511;SDS011;42408;53.238;5.686;2024-01-10T11:49:24;15.85;;;8.82;;
56511;SDS011;42408;53.238;5.686;2024-01-10T11:51:59;13.68;;;8.10;;
56511;SDS011;42408;53.238;5.686;2024-01-10T11:57:01;16.65;;;8.38;;
56511;SDS011;42408;53.238;5.686;2024-01-10T11:59:27;15.00;;;8.37;;
56511;SDS011;42408;53.238;5.686;2024-01-10T12:01:53;14.02;;;8.13;;
56511;SDS011;42408;53.238;5.686;2024-01-10T12:04:19;13.17;;;8.40;;
56511;SDS011;42408;53.238;5.686;2024-01-10T12:09:12;15.13;;;7.78;;
56511;SDS011;42408;53.238;5.686;2024-01-10T12:11:39;14.40;;;8.48;;
56511;SDS011;42408;53.238;5.686;2024-01-10T12:14:06;28.10;;;14.50;;
56511;SDS011;42408;53.238;5.686;2024-01-10T12:16:33;14.57;;;8.55;;
56511;SDS011;42408;53.238;5.686;2024-01-10T12:18:59;15.07;;;8.30;;
56511;SDS011;42408;53.238;5.686;2024-01-10T12:21:25;14.37;;;8.30;;
56511;SDS011;42408;53.238;5.686;2024-01-10T12:23:50;13.03;;;7.83;;
56511;SDS011;42408;53.238;5.686;2024-01-10T12:26:19;13.45;;;7.93;;
56511;SDS011;42408;53.238;5.686;2024-01-10T12:28:54;12.30;;;7.80;;
56511;SDS011;42408;53.238;5.686;2024-01-10T12:31:21;13.55;;;8.32;;
56511;SDS011;42408;53.238;5.686;2024-01-10T12:33:48;13.02;;;7.72;;
56511;SDS011;42408;53.238;5.686;2024-01-10T12:36:16;14.00;;;8.00;;
56511;SDS011;42408;53.238;5.686;2024-01-10T12:38:43;13.55;;;7.55;;
56511;SDS011;42408;53.238;5.686;2024-01-10T12:41:12;12.98;;;6.40;;
56511;SDS011;42408;53.238;5.686;2024-01-10T12:43:40;12.68;;;7.45;;
56511;SDS011;42408;53.238;5.686;2024-01-10T12:46:06;11.10;;;7.33;;
56511;SDS011;42408;53.238;5.686;2024-01-10T12:48:36;12.38;;;7.72;;
56511;SDS011;42408;53.238;5.686;2024-01-10T12:51:06;12.07;;;7.18;;
56511;SDS011;42408;53.238;5.686;2024-01-10T12:53:36;15.75;;;7.50;;
56511;SDS011;42408;53.238;5.686;2024-01-10T12:56:07;13.82;;;7.65;;
56511;SDS011;42408;53.238;5.686;2024-01-10T12:58:34;12.65;;;8.05;;
56511;SDS011;42408;53.238;5.686;2024-01-10T13:01:02;12.63;;;7.53;;
56511;SDS011;42408;53.238;5.686;2024-01-10T13:03:31;12.05;;;6.97;;
56511;SDS011;42408;53.238;5.686;2024-01-10T13:05:57;14.60;;;7.17;;
56511;SDS011;42408;53.238;5.686;2024-01-10T13:08:23;11.18;;;6.90;;
56511;SDS011;42408;53.238;5.686;2024-01-10T13:10:49;13.97;;;7.70;;
56511;SDS011;42408;53.238;5.686;2024-01-10T13:13:15;14.07;;;7.43;;
56511;SDS011;42408;53.238;5.686;2024-01-10T13:15:42;13.25;;;8.00;;
56511;SDS011;42408;53.238;5.686;2024-01-10T13:18:08;12.20;;;7.50;;
56511;SDS011;42408;53.238;5.686;2024-01-10T13:20:37;12.75;;;7.75;;
56511;SDS011;42408;53.238;5.686;2024-01-10T13:23:03;12.53;;;7.20;;
56511;SDS011;42408;53.238;5.686;2024-01-10T13:25:29;12.35;;;7.55;;
56511;SDS011;42408;53.238;5.686;2024-01-10T13:27:54;14.23;;;7.20;;
56511;SDS011;42408;53.238;5.686;2024-01-10T13:30:20;13.07;;;7.10;;
56511;SDS011;42408;53.238;5.686;2024-01-10T13:32:46;11.60;;;7.30;;
56511;SDS011;42408;53.238;5.686;2024-01-10T13:35:13;13.03;;;7.63;;
56511;SDS011;42408;53.238;5.686;2024-01-10T13:37:39;13.95;;;7.25;;
56511;SDS011;42408;53.238;5.686;2024-01-10T13:40:06;13.52;;;7.03;;
56511;SDS011;42408;53.238;5.686;2024-01-10T13:42:34;13.02;;;7.13;;
56511;SDS011;42408;53.238;5.686;2024-01-10T13:45:06;11.95;;;6.90;;
56511;SDS011;42408;53.238;5.686;2024-01-10T13:47:33;13.63;;;7.25;;
56511;SDS011;42408;53.238;5.686;2024-01-10T13:49:59;15.50;;;7.70;;
56511;SDS011;42408;53.238;5.686;2024-01-10T13:52:25;12.85;;;7.25;;
56511;SDS011;42408;53.238;5.686;2024-01-10T13:54:51;13.70;;;7.80;;
56511;SDS011;42408;53.238;5.686;2024-01-10T13:57:17;11.07;;;6.83;;
56511;SDS011;42408;53.238;5.686;2024-01-10T13:59:43;13.07;;;7.57;;
56511;SDS011;42408;53.238;5.686;2024-01-10T14:02:09;12.00;;;6.87;;
56511;SDS011;42408;53.238;5.686;2024-01-10T14:04:35;13.93;;;8.07;;
56511;SDS011;42408;53.238;5.686;2024-01-10T14:07:01;12.27;;;8.00;;
56511;SDS011;42408;53.238;5.686;2024-01-10T14:09:29;12.55;;;7.68;;
56511;SDS011;42408;53.238;5.686;2024-01-10T14:11:55;12.48;;;7.22;;
56511;SDS011;42408;53.238;5.686;2024-01-10T14:14:21;11.57;;;7.30;;
56511;SDS011;42408;53.238;5.686;2024-01-10T14:16:47;14.45;;;8.02;;
56511;SDS011;42408;53.238;5.686;2024-01-10T14:19:13;15.10;;;7.70;;
56511;SDS011;42408;53.238;5.686;2024-01-10T14:21:39;12.63;;;8.27;;
56511;SDS011;42408;53.238;5.686;2024-01-10T14:24:04;14.90;;;8.97;;
56511;SDS011;42408;53.238;5.686;2024-01-10T14:26:30;15.60;;;8.53;;
56511;SDS011;42408;53.238;5.686;2024-01-10T14:28:55;14.33;;;8.73;;
56511;SDS011;42408;53.238;5.686;2024-01-10T14:31:22;14.37;;;8.87;;
56511;SDS011;42408;53.238;5.686;2024-01-10T14:33:48;13.40;;;8.40;;
56511;SDS011;42408;53.238;5.686;2024-01-10T14:36:13;12.80;;;7.73;;
56511;SDS011;42408;53.238;5.686;2024-01-10T14:38:40;15.55;;;9.02;;
56511;SDS011;42408;53.238;5.686;2024-01-10T14:41:08;13.77;;;8.32;;
56511;SDS011;42408;53.238;5.686;2024-01-10T14:43:37;13.38;;;8.15;;
56511;SDS011;42408;53.238;5.686;2024-01-10T14:46:03;14.15;;;8.13;;
56511;SDS011;42408;53.238;5.686;2024-01-10T14:48:30;14.25;;;8.05;;
56511;SDS011;42408;53.238;5.686;2024-01-10T14:50:56;13.38;;;8.10;;
56511;SDS011;42408;53.238;5.686;2024-01-10T14:53:22;13.47;;;8.27;;
56511;SDS011;42408;53.238;5.686;2024-01-10T14:58:14;15.30;;;8.93;;
56511;SDS011;42408;53.238;5.686;2024-01-10T15:00:40;13.57;;;8.67;;